KLBE

Arnold Palmer Regional Airport

Latrobe, Pennsylvania, USA
METAR KLBE 211250Z 24015G25KT 10SM BKN075 19/11 A3024
Observed Flight Rules
Feb-21 @ 12:50 UTC (31 minutes ago) Visual Flight Rules
Wind Visibility Clouds
240° at 15 knots
 Gusting to 25 knots
10 miles
  • Broken at 7,500' AGL
Temperatures Readings
Current 19°C / 66°F
Dewpoint 11°C / 52°F
Humidity 60%
Altimeter 30.24" Hg
Pressure 1024 hPa
Elevation 361
METAR KLBE 211250Z 24015G25KT 10SM BKN075 19/11 A3024
Observed Flight Rules
Feb-21 @ 12:50 UTC
(31 minutes ago)
VFR
Wind Visibility
240° at 15 knots
 Gusting to 25 knots
10 miles
Clouds
  • Broken at 7,500' AGL
Temperature Dewpoint
19°C / 66°F 11°C / 52°F
Humidity Altimeter Pressure
60% 30.24" Hg 1024 hPa